Time;durP1;ratioP1;P1;durP2;ratioP2;P2;SDS_P1;SDS_P2;PMS_P1;PMS_P2;Temp;Humidity;BMP_temperature;BMP_pressure;BME280_temperature;BME280_humidity;BME280_pressure;Samples;Min_cycle;Max_cycle;Signal;HPM_P1;HPM_P2
2022/06/27 00:03:45;;;;;;;5.1;7.6;;;;;;;18.7;100;98590;;;;
2022/06/27 00:14:46;;;;;;;5.1;7.6;;;;;;;18.4;100;98580;;;;
2022/06/27 00:25:45;;;;;;;5.1;7.6;;;;;;;18.2;100;98590;;;;
2022/06/27 00:35:45;;;;;;;4.4;8.4;;;;;;;18;100;98590;;;;
2022/06/27 00:46:45;;;;;;;4.4;8.4;;;;;;;17.8;100;98590;;;;
2022/06/27 00:56:45;;;;;;;4.4;8.4;;;;;;;17.6;100;98590;;;;
2022/06/27 01:06:45;;;;;;;4.4;7.5;;;;;;;17.6;100;98580;;;;
2022/06/27 01:17:46;;;;;;;4.4;7.5;;;;;;;17.4;100;98590;;;;
2022/06/27 01:27:45;;;;;;;4.4;7.5;;;;;;;17.2;100;98600;;;;
2022/06/27 01:38:45;;;;;;;4.7;6.6;;;;;;;17.1;100;98590;;;;
2022/06/27 01:49:45;;;;;;;4.7;6.6;;;;;;;16.9;100;98590;;;;
2022/06/27 01:59:45;;;;;;;4.7;6.6;;;;;;;16.8;100;98590;;;;
2022/06/27 02:09:45;;;;;;;5.1;7.9;;;;;;;16.7;100;98590;;;;
2022/06/27 02:20:45;;;;;;;5.1;7.9;;;;;;;16.5;100;98600;;;;
2022/06/27 02:31:45;;;;;;;5.1;7.9;;;;;;;16.5;100;98590;;;;
2022/06/27 02:41:45;;;;;;;5.4;7.8;;;;;;;16.4;100;98590;;;;
2022/06/27 02:51:45;;;;;;;5.4;7.8;;;;;;;16.4;100;98590;;;;
2022/06/27 03:01:45;;;;;;;5.4;7.8;;;;;;;16.5;100;98590;;;;
2022/06/27 03:12:45;;;;;;;5.5;8.7;;;;;;;16.7;100;98600;;;;
2022/06/27 03:22:45;;;;;;;5.5;8.7;;;;;;;16.7;100;98600;;;;
2022/06/27 03:33:45;;;;;;;5;7.5;;;;;;;17;100;98600;;;;
2022/06/27 03:44:45;;;;;;;5;7.5;;;;;;;17.2;100;98620;;;;
2022/06/27 03:55:45;;;;;;;5;7.5;;;;;;;17.3;100;98630;;;;
2022/06/27 04:06:45;;;;;;;6;8.8;;;;;;;17.5;100;98630;;;;
2022/06/27 04:17:45;;;;;;;6;8.8;;;;;;;18;100;98640;;;;
2022/06/27 04:28:45;;;;;;;6;8.8;;;;;;;18.3;100;98640;;;;
2022/06/27 04:38:46;;;;;;;5.4;8.5;;;;;;;18.7;100;98660;;;;
2022/06/27 04:49:45;;;;;;;5.4;8.5;;;;;;;19.6;100;98660;;;;
2022/06/27 04:59:45;;;;;;;5.4;8.5;;;;;;;20.1;100;98660;;;;
2022/06/27 05:10:45;;;;;;;5;9.8;;;;;;;20.5;100;98670;;;;
2022/06/27 05:21:45;;;;;;;5;9.8;;;;;;;20.9;100;98680;;;;
2022/06/27 05:31:45;;;;;;;5;9.8;;;;;;;21.3;100;98670;;;;
2022/06/27 05:41:45;;;;;;;4.4;10.2;;;;;;;21.7;100;98680;;;;
2022/06/27 05:52:46;;;;;;;4.4;10.2;;;;;;;22;100;98690;;;;
2022/06/27 06:02:45;;;;;;;4;6.9;;;;;;;22.5;100;98690;;;;
2022/06/27 06:13:46;;;;;;;4;6.9;;;;;;;23.1;100;98700;;;;
2022/06/27 06:23:45;;;;;;;4;6.9;;;;;;;23.5;100;98710;;;;
2022/06/27 06:34:45;;;;;;;4.5;7.6;;;;;;;23.6;100;98720;;;;
2022/06/27 06:44:45;;;;;;;4.5;7.6;;;;;;;24.1;100;98720;;;;
2022/06/27 06:55:45;;;;;;;4.5;7.6;;;;;;;24.9;100;98710;;;;
2022/06/27 07:06:46;;;;;;;3.8;7.3;;;;;;;25.2;100;98710;;;;
2022/06/27 07:17:46;;;;;;;3.8;7.3;;;;;;;25.6;100;98710;;;;
2022/06/27 07:27:46;;;;;;;3.8;7.3;;;;;;;25.9;100;98720;;;;
2022/06/27 07:38:46;;;;;;;5;8.8;;;;;;;26.5;100;98720;;;;
2022/06/27 07:49:45;;;;;;;5;8.8;;;;;;;26.8;100;98720;;;;
2022/06/27 07:59:45;;;;;;;5;8.8;;;;;;;27.5;100;98710;;;;
2022/06/27 08:10:45;;;;;;;4.3;7.5;;;;;;;27.5;100;98710;;;;
2022/06/27 08:20:46;;;;;;;4.3;7.5;;;;;;;27.8;100;98710;;;;
2022/06/27 08:30:45;;;;;;;4.3;7.5;;;;;;;28.2;100;98710;;;;
2022/06/27 08:41:45;;;;;;;4.9;7.3;;;;;;;28.5;98.2;98710;;;;
2022/06/27 08:51:45;;;;;;;4.9;7.3;;;;;;;28.5;98.3;98720;;;;
2022/06/27 09:02:45;;;;;;;4.9;7.3;;;;;;;29;91.5;98710;;;;
2022/06/27 09:12:45;;;;;;;4.3;7;;;;;;;29;93.7;98710;;;;
2022/06/27 09:23:47;;;;;;;4.3;7;;;;;;;29.5;92.8;98700;;;;
2022/06/27 09:34:45;;;;;;;4;5.9;;;;;;;29.5;90.2;98690;;;;
2022/06/27 09:44:45;;;;;;;4;5.9;;;;;;;30;88.4;98700;;;;
2022/06/27 09:54:45;;;;;;;4;5.9;;;;;;;29.8;89.2;98700;;;;
2022/06/27 10:04:45;;;;;;;4.4;7.1;;;;;;;30.1;86.8;98690;;;;
2022/06/27 10:15:45;;;;;;;4.4;7.1;;;;;;;30.4;86.3;98690;;;;
2022/06/27 10:25:45;;;;;;;4.4;7.1;;;;;;;30.5;87.3;98680;;;;
2022/06/27 10:36:45;;;;;;;4.7;7.1;;;;;;;31;87.9;98670;;;;
2022/06/27 10:47:45;;;;;;;4.7;7.1;;;;;;;31.1;89.7;98660;;;;
2022/06/27 10:58:48;;;;;;;4.7;7.1;;;;;;;31.5;79.7;98650;;;;
2022/06/27 11:08:46;;;;;;;4.1;7.3;;;;;;;31.5;80.2;98640;;;;
2022/06/27 11:18:45;;;;;;;4.1;7.3;;;;;;;31.5;75.5;98630;;;;
2022/06/27 11:38:45;;;;;;;4.4;7.2;;;;;;;32.1;72.3;98620;;;;
2022/06/27 11:49:45;;;;;;;4.4;7.2;;;;;;;32.7;71.7;98620;;;;
2022/06/27 12:00:45;;;;;;;4.4;7.2;;;;;;;32.4;68.6;98610;;;;
2022/06/27 12:11:16;;;;;;;4.8;7.1;;;;;;;32.8;69.2;98590;;;;
2022/06/27 12:21:45;;;;;;;4.8;7.1;;;;;;;33.1;67.9;98590;;;;
2022/06/27 12:31:45;;;;;;;4.8;7.1;;;;;;;33.1;65.9;98580;;;;
2022/06/27 12:42:45;;;;;;;4.3;7.6;;;;;;;32.6;61.6;98580;;;;
2022/06/27 12:53:45;;;;;;;4.3;7.6;;;;;;;32.8;61.7;98570;;;;
2022/06/27 13:03:45;;;;;;;4.3;7.7;;;;;;;33;61.8;98570;;;;
2022/06/27 13:13:45;;;;;;;4.3;7.7;;;;;;;33.3;60.7;98570;;;;
2022/06/27 13:24:45;;;;;;;4.3;7.7;;;;;;;33.7;61;98570;;;;
2022/06/27 13:35:45;;;;;;;4;6.8;;;;;;;33.9;59.2;98570;;;;
2022/06/27 13:46:45;;;;;;;4;6.8;;;;;;;34.2;59;98570;;;;
2022/06/27 13:56:45;;;;;;;4;6.8;;;;;;;34;58.6;98570;;;;
2022/06/27 14:07:49;;;;;;;4;6.9;;;;;;;33.7;57.1;98560;;;;
2022/06/27 14:17:45;;;;;;;4;6.9;;;;;;;34.9;58.5;98550;;;;
2022/06/27 14:28:45;;;;;;;4;6.9;;;;;;;34.7;56.1;98550;;;;
2022/06/27 14:39:45;;;;;;;4.1;7.8;;;;;;;33.6;55.7;98550;;;;
2022/06/27 14:49:46;;;;;;;4.1;7.8;;;;;;;33.3;55.2;98540;;;;
2022/06/27 15:00:45;;;;;;;4.1;7.8;;;;;;;33.9;56.4;98540;;;;
2022/06/27 15:11:48;;;;;;;3.9;6.5;;;;;;;33.5;57.5;98530;;;;
2022/06/27 15:21:45;;;;;;;3.9;6.5;;;;;;;32.9;59.8;98530;;;;
2022/06/27 15:32:45;;;;;;;3.9;6.5;;;;;;;36.4;51.1;98540;;;;
2022/06/27 15:42:45;;;;;;;3.8;6.4;;;;;;;35.6;52.4;98540;;;;
2022/06/27 15:52:46;;;;;;;3.8;6.4;;;;;;;35.6;56.6;98540;;;;
2022/06/27 16:03:45;;;;;;;3.8;6.4;;;;;;;36.5;53.1;98540;;;;
2022/06/27 16:14:45;;;;;;;3.9;7.9;;;;;;;37.4;49.1;98540;;;;
2022/06/27 16:24:46;;;;;;;3.9;7.9;;;;;;;37.3;50.4;98540;;;;
2022/06/27 16:35:45;;;;;;;3.7;9.1;;;;;;;37.6;49.1;98540;;;;
2022/06/27 16:46:45;;;;;;;3.7;9.1;;;;;;;36.4;49.3;98540;;;;
2022/06/27 16:57:45;;;;;;;3.7;9.1;;;;;;;36.5;49.8;98540;;;;
2022/06/27 17:07:45;;;;;;;2.9;5.3;;;;;;;35.5;51.6;98530;;;;
2022/06/27 17:18:45;;;;;;;2.9;5.3;;;;;;;33.2;56.2;98530;;;;
2022/06/27 17:28:45;;;;;;;2.9;5.3;;;;;;;32.2;59.1;98520;;;;
2022/06/27 17:38:45;;;;;;;3.5;6.9;;;;;;;33;56.7;98540;;;;
2022/06/27 17:48:45;;;;;;;3.5;6.9;;;;;;;31;63;98530;;;;
2022/06/27 17:59:45;;;;;;;3.5;6.9;;;;;;;31.1;64.1;98530;;;;
2022/06/27 18:10:45;;;;;;;4.1;7.7;;;;;;;30;67.8;98530;;;;
2022/06/27 18:20:45;;;;;;;4.1;7.7;;;;;;;29;71.6;98540;;;;
2022/06/27 18:31:46;;;;;;;4.1;7.7;;;;;;;28.4;73.2;98540;;;;
2022/06/27 18:42:45;;;;;;;4.3;7.7;;;;;;;27.7;78.4;98540;;;;
2022/06/27 18:52:45;;;;;;;4.3;7.7;;;;;;;26.9;80.5;98560;;;;
2022/06/27 19:02:45;;;;;;;4.3;7.7;;;;;;;26.3;85.1;98570;;;;
2022/06/27 19:13:45;;;;;;;4.7;9.8;;;;;;;25.6;88.2;98590;;;;
2022/06/27 19:23:45;;;;;;;4.7;9.8;;;;;;;25.2;93.5;98600;;;;
2022/06/27 19:33:45;;;;;;;4.7;9.8;;;;;;;24.9;95.8;98600;;;;
2022/06/27 19:44:45;;;;;;;6.5;10.2;;;;;;;24.7;97.6;98600;;;;
2022/06/27 19:54:45;;;;;;;6.5;10.2;;;;;;;24.5;98;98600;;;;
2022/06/27 20:05:45;;;;;;;6.2;9.4;;;;;;;24.2;100;98600;;;;
2022/06/27 20:16:45;;;;;;;6.2;9.4;;;;;;;24;100;98600;;;;
2022/06/27 20:26:45;;;;;;;6.2;9.4;;;;;;;23.9;100;98600;;;;
2022/06/27 20:36:45;;;;;;;6.4;11.7;;;;;;;23.5;100;98590;;;;
2022/06/27 20:47:45;;;;;;;6.4;11.7;;;;;;;23.4;100;98580;;;;
2022/06/27 20:58:45;;;;;;;6.4;11.7;;;;;;;23.1;100;98580;;;;
2022/06/27 21:19:45;;;;;;;6.3;9.4;;;;;;;22.6;100;98570;;;;
2022/06/27 21:30:46;;;;;;;6.3;9.4;;;;;;;22.6;100;98560;;;;
2022/06/27 21:41:46;;;;;;;6.3;9.1;;;;;;;22.4;100;98560;;;;
2022/06/27 21:51:46;;;;;;;6.3;9.1;;;;;;;22.4;100;98570;;;;
2022/06/27 22:02:46;;;;;;;6.3;9.1;;;;;;;22.1;100;98570;;;;
2022/06/27 22:12:46;;;;;;;7.2;10.3;;;;;;;21.9;100;98580;;;;
2022/06/27 22:23:46;;;;;;;7.2;10.3;;;;;;;21.6;100;98570;;;;
2022/06/27 22:33:46;;;;;;;7.2;10.3;;;;;;;21.3;100;98560;;;;
2022/06/27 22:44:46;;;;;;;7.4;9.9;;;;;;;21.1;100;98580;;;;
2022/06/27 22:54:46;;;;;;;7.4;9.9;;;;;;;20.9;100;98590;;;;
2022/06/27 23:05:46;;;;;;;7.9;12.9;;;;;;;20.8;100;98600;;;;
2022/06/27 23:15:46;;;;;;;7.9;12.9;;;;;;;20.6;100;98610;;;;
2022/06/27 23:25:46;;;;;;;7.9;12.9;;;;;;;20.5;100;98610;;;;
2022/06/27 23:36:46;;;;;;;8.6;12.9;;;;;;;20.5;100;98610;;;;
2022/06/27 23:46:46;;;;;;;8.6;12.9;;;;;;;20.3;100;98600;;;;
2022/06/27 23:57:46;;;;;;;8.6;12.9;;;;;;;20;100;98590;;;;
